Time;durP1;ratioP1;P1;durP2;ratioP2;P2;SDS_P1;SDS_P2;PMS_P1;PMS_P2;Temp;Humidity;BMP_temperature;BMP_pressure;BME280_temperature;BME280_humidity;BME280_pressure;Samples;Min_cycle;Max_cycle;Signal;HPM_P1;HPM_P2
2022/04/22 00:00:00;;;;;;;8.8;7.3;;;;;;;11.8;100.0;100670;;;;
2022/04/22 00:01:00;;;;;;;8.8;7.3;;;;;;;11.7;100.0;100670;;;;
2022/04/22 00:02:06;;;;;;;8.8;7.3;;;;;;;11.7;100.0;100670;;;;
2022/04/22 00:03:00;;;;;;;8.8;7.3;;;;;;;11.8;100.0;100670;;;;
2022/04/22 00:04:00;;;;;;;8.8;7.3;;;;;;;11.8;100.0;100670;;;;
2022/04/22 00:05:00;;;;;;;8.8;7.3;;;;;;;11.6;100.0;100670;;;;
2022/04/22 00:06:00;;;;;;;8.8;7.3;;;;;;;11.6;100.0;100670;;;;
2022/04/22 00:07:00;;;;;;;8.8;7.3;;;;;;;11.5;100.0;100660;;;;
2022/04/22 00:08:00;;;;;;;8.8;7.3;;;;;;;11.5;100.0;100660;;;;
2022/04/22 00:09:00;;;;;;;8.8;7.3;;;;;;;11.5;100.0;100670;;;;
2022/04/22 00:10:00;;;;;;;8.8;7.3;;;;;;;11.5;100.0;100670;;;;
2022/04/22 00:12:00;;;;;;;8.8;7.3;;;;;;;11.4;100.0;100660;;;;
2022/04/22 00:13:01;;;;;;;8.8;7.3;;;;;;;11.5;100.0;100670;;;;
2022/04/22 00:14:01;;;;;;;8.8;7.3;;;;;;;11.5;100.0;100670;;;;
2022/04/22 00:15:00;;;;;;;8.8;7.3;;;;;;;11.5;100.0;100660;;;;
2022/04/22 00:16:00;;;;;;;9.1;7.8;;;;;;;11.5;100.0;100660;;;;
2022/04/22 00:17:00;;;;;;;9.1;7.8;;;;;;;11.6;100.0;100660;;;;
2022/04/22 00:18:00;;;;;;;9.1;7.8;;;;;;;11.6;100.0;100660;;;;
2022/04/22 00:19:00;;;;;;;9.1;7.8;;;;;;;11.4;100.0;100660;;;;
2022/04/22 00:20:00;;;;;;;9.1;7.8;;;;;;;11.4;100.0;100660;;;;
2022/04/22 00:21:00;;;;;;;9.1;7.8;;;;;;;11.5;100.0;100660;;;;
2022/04/22 00:22:00;;;;;;;9.1;7.8;;;;;;;11.5;100.0;100660;;;;
2022/04/22 00:23:00;;;;;;;9.1;7.8;;;;;;;11.4;100.0;100650;;;;
2022/04/22 00:24:00;;;;;;;9.1;7.8;;;;;;;11.4;100.0;100650;;;;
2022/04/22 00:25:00;;;;;;;9.1;7.8;;;;;;;11.3;100.0;100650;;;;
2022/04/22 00:26:00;;;;;;;9.1;7.8;;;;;;;11.3;100.0;100650;;;;
2022/04/22 00:27:00;;;;;;;9.1;7.8;;;;;;;11.4;100.0;100650;;;;
2022/04/22 00:28:00;;;;;;;9.1;7.8;;;;;;;11.4;100.0;100650;;;;
2022/04/22 00:29:00;;;;;;;9.1;7.8;;;;;;;11.4;100.0;100650;;;;
2022/04/22 00:30:00;;;;;;;9.1;7.8;;;;;;;11.4;100.0;100650;;;;
2022/04/22 00:31:00;;;;;;;9.1;7.8;;;;;;;11.3;100.0;100650;;;;
2022/04/22 00:32:00;;;;;;;9.1;7.8;;;;;;;11.3;100.0;100650;;;;
2022/04/22 00:33:00;;;;;;;9.1;7.8;;;;;;;11.3;100.0;100650;;;;
2022/04/22 00:34:00;;;;;;;9.1;7.8;;;;;;;11.3;100.0;100650;;;;
2022/04/22 00:35:00;;;;;;;9.1;7.8;;;;;;;11.3;100.0;100640;;;;
2022/04/22 00:36:00;;;;;;;9.0;8.1;;;;;;;11.3;100.0;100640;;;;
2022/04/22 00:37:00;;;;;;;9.0;8.1;;;;;;;11.2;100.0;100650;;;;
2022/04/22 00:38:00;;;;;;;9.0;8.1;;;;;;;11.2;100.0;100650;;;;
2022/04/22 00:39:02;;;;;;;9.0;8.1;;;;;;;11.2;100.0;100650;;;;
2022/04/22 00:40:00;;;;;;;9.0;8.1;;;;;;;11.2;100.0;100650;;;;
2022/04/22 00:41:00;;;;;;;9.0;8.1;;;;;;;11.3;100.0;100650;;;;
2022/04/22 00:42:10;;;;;;;9.0;8.1;;;;;;;11.3;100.0;100650;;;;
2022/04/22 00:43:10;;;;;;;9.0;8.1;;;;;;;11.4;100.0;100650;;;;
2022/04/22 00:44:00;;;;;;;9.0;8.1;;;;;;;11.4;100.0;100650;;;;
2022/04/22 00:45:00;;;;;;;9.0;8.1;;;;;;;11.4;100.0;100650;;;;
2022/04/22 00:46:00;;;;;;;9.0;8.1;;;;;;;11.4;100.0;100650;;;;
2022/04/22 00:47:00;;;;;;;9.0;8.1;;;;;;;11.3;100.0;100650;;;;
2022/04/22 00:48:00;;;;;;;9.0;8.1;;;;;;;11.3;100.0;100650;;;;
2022/04/22 00:49:00;;;;;;;9.0;8.1;;;;;;;11.2;100.0;100650;;;;
2022/04/22 00:50:00;;;;;;;9.0;8.1;;;;;;;11.2;100.0;100650;;;;
2022/04/22 00:51:00;;;;;;;9.0;8.1;;;;;;;11.1;100.0;100650;;;;
2022/04/22 00:52:01;;;;;;;9.0;8.1;;;;;;;11.1;100.0;100650;;;;
2022/04/22 00:53:00;;;;;;;9.0;8.1;;;;;;;11.2;100.0;100650;;;;
2022/04/22 00:54:01;;;;;;;9.0;8.1;;;;;;;11.2;100.0;100650;;;;
2022/04/22 00:55:00;;;;;;;9.0;8.1;;;;;;;11.3;100.0;100640;;;;
2022/04/22 00:56:01;;;;;;;10.7;9.3;;;;;;;11.3;100.0;100640;;;;
2022/04/22 00:57:00;;;;;;;10.7;9.3;;;;;;;11.1;100.0;100640;;;;
2022/04/22 00:58:01;;;;;;;10.7;9.3;;;;;;;11.1;100.0;100640;;;;
2022/04/22 00:59:01;;;;;;;10.7;9.3;;;;;;;11.1;100.0;100640;;;;
2022/04/22 01:00:01;;;;;;;10.7;9.3;;;;;;;11.1;100.0;100640;;;;
2022/04/22 01:01:00;;;;;;;10.7;9.3;;;;;;;11.0;100.0;100640;;;;
2022/04/22 01:02:00;;;;;;;10.7;9.3;;;;;;;11.0;100.0;100640;;;;
2022/04/22 01:03:00;;;;;;;10.7;9.3;;;;;;;11.0;100.0;100640;;;;
2022/04/22 01:10:00;;;;;;;10.7;9.3;;;;;;;11.1;100.0;100640;;;;
2022/04/22 01:11:00;;;;;;;10.7;9.3;;;;;;;11.0;100.0;100640;;;;
2022/04/22 01:12:00;;;;;;;10.7;9.3;;;;;;;11.0;100.0;100640;;;;
2022/04/22 01:13:00;;;;;;;10.7;9.3;;;;;;;11.0;100.0;100630;;;;
2022/04/22 01:14:00;;;;;;;10.7;9.3;;;;;;;11.0;100.0;100630;;;;
2022/04/22 01:15:00;;;;;;;10.7;9.3;;;;;;;11.1;100.0;100630;;;;
2022/04/22 01:16:00;;;;;;;10.5;9.5;;;;;;;11.1;100.0;100630;;;;
2022/04/22 01:17:01;;;;;;;10.5;9.5;;;;;;;10.9;100.0;100630;;;;
2022/04/22 01:18:00;;;;;;;10.5;9.5;;;;;;;10.9;100.0;100630;;;;
2022/04/22 01:19:00;;;;;;;10.5;9.5;;;;;;;10.9;100.0;100630;;;;
2022/04/22 01:20:00;;;;;;;10.5;9.5;;;;;;;10.9;100.0;100630;;;;
2022/04/22 01:21:00;;;;;;;10.5;9.5;;;;;;;10.9;100.0;100630;;;;
2022/04/22 01:22:00;;;;;;;10.5;9.5;;;;;;;10.9;100.0;100630;;;;
2022/04/22 01:23:00;;;;;;;10.5;9.5;;;;;;;10.9;100.0;100620;;;;
2022/04/22 01:24:00;;;;;;;10.5;9.5;;;;;;;10.9;100.0;100620;;;;
2022/04/22 01:25:01;;;;;;;10.5;9.5;;;;;;;10.8;100.0;100630;;;;
2022/04/22 01:26:00;;;;;;;10.5;9.5;;;;;;;10.8;100.0;100630;;;;
2022/04/22 01:27:01;;;;;;;10.5;9.5;;;;;;;10.8;100.0;100620;;;;
2022/04/22 01:28:01;;;;;;;10.5;9.5;;;;;;;10.8;100.0;100620;;;;
2022/04/22 01:29:01;;;;;;;10.5;9.5;;;;;;;10.8;100.0;100620;;;;
2022/04/22 01:30:01;;;;;;;10.5;9.5;;;;;;;10.8;100.0;100620;;;;
2022/04/22 01:31:00;;;;;;;10.5;9.5;;;;;;;10.8;100.0;100610;;;;
2022/04/22 01:32:01;;;;;;;10.5;9.5;;;;;;;10.8;100.0;100610;;;;
2022/04/22 01:33:01;;;;;;;10.5;9.5;;;;;;;10.8;100.0;100610;;;;
2022/04/22 01:34:00;;;;;;;10.5;9.5;;;;;;;10.8;100.0;100610;;;;
2022/04/22 01:35:00;;;;;;;10.5;9.5;;;;;;;10.8;100.0;100610;;;;
2022/04/22 01:36:00;;;;;;;11.1;10.0;;;;;;;10.8;100.0;100610;;;;
2022/04/22 01:37:00;;;;;;;11.1;10.0;;;;;;;10.8;100.0;100600;;;;
2022/04/22 01:38:00;;;;;;;11.1;10.0;;;;;;;10.8;100.0;100600;;;;
2022/04/22 01:39:00;;;;;;;11.1;10.0;;;;;;;10.6;100.0;100600;;;;
2022/04/22 01:40:00;;;;;;;11.1;10.0;;;;;;;10.6;100.0;100600;;;;
2022/04/22 01:41:00;;;;;;;11.1;10.0;;;;;;;10.6;100.0;100610;;;;
2022/04/22 01:42:00;;;;;;;11.1;10.0;;;;;;;10.6;100.0;100610;;;;
2022/04/22 01:43:00;;;;;;;11.1;10.0;;;;;;;10.7;100.0;100600;;;;
2022/04/22 01:44:00;;;;;;;11.1;10.0;;;;;;;10.7;100.0;100600;;;;
2022/04/22 01:45:00;;;;;;;11.1;10.0;;;;;;;10.6;100.0;100600;;;;
2022/04/22 01:46:00;;;;;;;11.1;10.0;;;;;;;10.6;100.0;100600;;;;
2022/04/22 01:47:00;;;;;;;11.1;10.0;;;;;;;10.6;100.0;100600;;;;
2022/04/22 01:48:00;;;;;;;11.1;10.0;;;;;;;10.6;100.0;100600;;;;
2022/04/22 01:49:00;;;;;;;11.1;10.0;;;;;;;10.6;100.0;100600;;;;
2022/04/22 01:50:00;;;;;;;11.1;10.0;;;;;;;10.6;100.0;100600;;;;
2022/04/22 01:51:00;;;;;;;11.1;10.0;;;;;;;10.5;100.0;100600;;;;
2022/04/22 01:52:00;;;;;;;11.1;10.0;;;;;;;10.5;100.0;100600;;;;
2022/04/22 01:53:00;;;;;;;11.1;10.0;;;;;;;10.5;100.0;100600;;;;
2022/04/22 01:54:00;;;;;;;11.1;10.0;;;;;;;10.5;100.0;100600;;;;
2022/04/22 01:55:00;;;;;;;11.1;10.0;;;;;;;10.4;100.0;100600;;;;
2022/04/22 01:56:00;;;;;;;12.2;11.0;;;;;;;10.4;100.0;100600;;;;
2022/04/22 01:57:00;;;;;;;12.2;11.0;;;;;;;10.5;100.0;100600;;;;
2022/04/22 01:58:01;;;;;;;12.2;11.0;;;;;;;10.5;100.0;100600;;;;
2022/04/22 01:59:00;;;;;;;12.2;11.0;;;;;;;10.5;100.0;100610;;;;
2022/04/22 02:00:02;;;;;;;12.2;11.0;;;;;;;10.5;100.0;100610;;;;
2022/04/22 02:01:00;;;;;;;12.2;11.0;;;;;;;10.5;100.0;100600;;;;
2022/04/22 02:02:00;;;;;;;12.2;11.0;;;;;;;10.5;100.0;100600;;;;
2022/04/22 02:03:00;;;;;;;12.2;11.0;;;;;;;10.6;100.0;100600;;;;
2022/04/22 02:04:00;;;;;;;12.2;11.0;;;;;;;10.6;100.0;100600;;;;
2022/04/22 02:05:00;;;;;;;12.2;11.0;;;;;;;10.5;100.0;100600;;;;
2022/04/22 02:06:01;;;;;;;12.2;11.0;;;;;;;10.5;100.0;100600;;;;
2022/04/22 02:07:00;;;;;;;12.2;11.0;;;;;;;10.4;100.0;100610;;;;
2022/04/22 02:08:00;;;;;;;12.2;11.0;;;;;;;10.4;100.0;100610;;;;
2022/04/22 02:09:00;;;;;;;12.2;11.0;;;;;;;10.4;100.0;100610;;;;
2022/04/22 02:10:00;;;;;;;12.2;11.0;;;;;;;10.4;100.0;100610;;;;
2022/04/22 02:11:00;;;;;;;12.2;11.0;;;;;;;10.3;100.0;100610;;;;
2022/04/22 02:12:00;;;;;;;12.2;11.0;;;;;;;10.3;100.0;100610;;;;
2022/04/22 02:13:00;;;;;;;12.2;11.0;;;;;;;10.3;100.0;100610;;;;
2022/04/22 02:14:00;;;;;;;12.2;11.0;;;;;;;10.3;100.0;100610;;;;
2022/04/22 02:15:00;;;;;;;12.2;11.0;;;;;;;10.4;100.0;100610;;;;
2022/04/22 02:16:00;;;;;;;12.5;11.3;;;;;;;10.4;100.0;100610;;;;
2022/04/22 02:17:03;;;;;;;12.5;11.3;;;;;;;10.3;100.0;100610;;;;
2022/04/22 02:18:00;;;;;;;12.5;11.3;;;;;;;10.3;100.0;100610;;;;
2022/04/22 02:19:00;;;;;;;12.5;11.3;;;;;;;10.3;100.0;100610;;;;
2022/04/22 02:20:01;;;;;;;12.5;11.3;;;;;;;10.3;100.0;100610;;;;
2022/04/22 02:21:00;;;;;;;12.5;11.3;;;;;;;10.2;100.0;100610;;;;
2022/04/22 02:22:00;;;;;;;12.5;11.3;;;;;;;10.2;100.0;100610;;;;
2022/04/22 02:23:01;;;;;;;12.5;11.3;;;;;;;10.2;100.0;100610;;;;
2022/04/22 02:24:00;;;;;;;12.5;11.3;;;;;;;10.2;100.0;100610;;;;
2022/04/22 02:25:00;;;;;;;12.5;11.3;;;;;;;10.3;100.0;100610;;;;
2022/04/22 02:26:00;;;;;;;12.5;11.3;;;;;;;10.3;100.0;100610;;;;
2022/04/22 02:29:00;;;;;;;12.5;11.3;;;;;;;10.2;100.0;100600;;;;
2022/04/22 02:30:00;;;;;;;12.5;11.3;;;;;;;10.2;100.0;100600;;;;
2022/04/22 02:31:01;;;;;;;12.5;11.3;;;;;;;10.2;100.0;100610;;;;
2022/04/22 02:32:00;;;;;;;12.5;11.3;;;;;;;10.2;100.0;100610;;;;
2022/04/22 02:33:00;;;;;;;12.5;11.3;;;;;;;10.2;100.0;100610;;;;
2022/04/22 02:34:00;;;;;;;12.5;11.3;;;;;;;10.2;100.0;100610;;;;
2022/04/22 02:35:00;;;;;;;13.6;12.2;;;;;;;10.2;100.0;100600;;;;
2022/04/22 02:36:00;;;;;;;13.6;12.2;;;;;;;10.2;100.0;100600;;;;
2022/04/22 02:37:00;;;;;;;13.6;12.2;;;;;;;10.2;100.0;100600;;;;
2022/04/22 02:38:00;;;;;;;13.6;12.2;;;;;;;10.2;100.0;100600;;;;
2022/04/22 02:39:00;;;;;;;13.6;12.2;;;;;;;10.3;100.0;100600;;;;
2022/04/22 02:40:00;;;;;;;13.6;12.2;;;;;;;10.3;100.0;100600;;;;
2022/04/22 02:46:00;;;;;;;13.6;12.2;;;;;;;10.0;100.0;100600;;;;
2022/04/22 02:47:01;;;;;;;13.6;12.2;;;;;;;10.0;100.0;100590;;;;
2022/04/22 02:48:00;;;;;;;13.6;12.2;;;;;;;10.0;100.0;100590;;;;
2022/04/22 02:49:00;;;;;;;13.6;12.2;;;;;;;10.0;100.0;100590;;;;
2022/04/22 02:50:00;;;;;;;13.6;12.2;;;;;;;10.0;100.0;100590;;;;
2022/04/22 02:51:00;;;;;;;13.6;12.2;;;;;;;10.0;100.0;100590;;;;
2022/04/22 02:52:01;;;;;;;13.6;12.2;;;;;;;10.0;100.0;100590;;;;
2022/04/22 02:53:00;;;;;;;13.6;12.2;;;;;;;10.1;100.0;100580;;;;
2022/04/22 02:54:00;;;;;;;13.6;12.2;;;;;;;10.1;100.0;100580;;;;
2022/04/22 02:55:00;;;;;;;13.7;12.5;;;;;;;10.0;100.0;100590;;;;
2022/04/22 02:56:00;;;;;;;13.7;12.5;;;;;;;10.0;100.0;100590;;;;
2022/04/22 02:57:00;;;;;;;13.7;12.5;;;;;;;10.1;100.0;100590;;;;
2022/04/22 02:58:00;;;;;;;13.7;12.5;;;;;;;10.1;100.0;100590;;;;
2022/04/22 02:59:00;;;;;;;13.7;12.5;;;;;;;9.9;100.0;100580;;;;
2022/04/22 03:00:00;;;;;;;13.7;12.5;;;;;;;9.9;100.0;100580;;;;
2022/04/22 03:01:00;;;;;;;13.7;12.5;;;;;;;9.9;100.0;100580;;;;
2022/04/22 03:02:00;;;;;;;13.7;12.5;;;;;;;9.9;100.0;100580;;;;
2022/04/22 03:03:01;;;;;;;13.7;12.5;;;;;;;9.8;100.0;100580;;;;
2022/04/22 03:04:00;;;;;;;13.7;12.5;;;;;;;9.8;100.0;100580;;;;
2022/04/22 03:05:00;;;;;;;13.7;12.5;;;;;;;9.8;100.0;100580;;;;
2022/04/22 03:06:00;;;;;;;13.7;12.5;;;;;;;9.8;100.0;100580;;;;
2022/04/22 03:07:00;;;;;;;13.7;12.5;;;;;;;9.9;100.0;100580;;;;
2022/04/22 03:08:01;;;;;;;13.7;12.5;;;;;;;9.9;100.0;100580;;;;
2022/04/22 03:09:00;;;;;;;13.7;12.5;;;;;;;9.8;100.0;100580;;;;
2022/04/22 03:10:00;;;;;;;13.7;12.5;;;;;;;9.8;100.0;100580;;;;
2022/04/22 03:11:00;;;;;;;13.7;12.5;;;;;;;9.9;100.0;100570;;;;
2022/04/22 03:12:00;;;;;;;13.7;12.5;;;;;;;9.9;100.0;100570;;;;
2022/04/22 03:13:00;;;;;;;13.7;12.5;;;;;;;9.8;100.0;100570;;;;
2022/04/22 03:14:00;;;;;;;13.7;12.5;;;;;;;9.8;100.0;100570;;;;
2022/04/22 03:15:00;;;;;;;14.5;13.0;;;;;;;9.9;100.0;100580;;;;
2022/04/22 03:16:02;;;;;;;14.5;13.0;;;;;;;9.9;100.0;100580;;;;
2022/04/22 03:17:00;;;;;;;14.5;13.0;;;;;;;9.8;100.0;100570;;;;
2022/04/22 03:18:00;;;;;;;14.5;13.0;;;;;;;9.8;100.0;100570;;;;
2022/04/22 03:19:00;;;;;;;14.5;13.0;;;;;;;9.8;100.0;100570;;;;
2022/04/22 03:20:00;;;;;;;14.5;13.0;;;;;;;9.8;100.0;100570;;;;
2022/04/22 03:21:01;;;;;;;14.5;13.0;;;;;;;9.9;100.0;100580;;;;
2022/04/22 03:22:00;;;;;;;14.5;13.0;;;;;;;9.9;100.0;100580;;;;
2022/04/22 03:23:00;;;;;;;14.5;13.0;;;;;;;9.9;100.0;100580;;;;
2022/04/22 03:24:00;;;;;;;14.5;13.0;;;;;;;9.9;100.0;100580;;;;
2022/04/22 03:25:00;;;;;;;14.5;13.0;;;;;;;9.8;100.0;100570;;;;
2022/04/22 03:26:00;;;;;;;14.5;13.0;;;;;;;9.8;100.0;100570;;;;
2022/04/22 03:27:00;;;;;;;14.5;13.0;;;;;;;9.6;100.0;100580;;;;
2022/04/22 03:28:00;;;;;;;14.5;13.0;;;;;;;9.6;100.0;100580;;;;
2022/04/22 03:29:00;;;;;;;14.5;13.0;;;;;;;9.6;100.0;100580;;;;
2022/04/22 03:30:02;;;;;;;14.5;13.0;;;;;;;9.6;100.0;100580;;;;
2022/04/22 03:31:00;;;;;;;14.5;13.0;;;;;;;9.6;100.0;100580;;;;
2022/04/22 03:32:00;;;;;;;14.5;13.0;;;;;;;9.6;100.0;100580;;;;
2022/04/22 03:33:01;;;;;;;14.5;13.0;;;;;;;9.6;100.0;100570;;;;
2022/04/22 03:34:00;;;;;;;14.5;13.0;;;;;;;9.6;100.0;100570;;;;
2022/04/22 03:35:00;;;;;;;16.3;14.7;;;;;;;9.6;100.0;100580;;;;
2022/04/22 03:36:00;;;;;;;16.3;14.7;;;;;;;9.6;100.0;100580;;;;
2022/04/22 03:37:00;;;;;;;16.3;14.7;;;;;;;9.6;100.0;100580;;;;
2022/04/22 03:38:00;;;;;;;16.3;14.7;;;;;;;9.6;100.0;100580;;;;
2022/04/22 03:39:00;;;;;;;16.3;14.7;;;;;;;9.7;100.0;100570;;;;
2022/04/22 03:40:00;;;;;;;16.3;14.7;;;;;;;9.7;100.0;100570;;;;
2022/04/22 03:41:00;;;;;;;16.3;14.7;;;;;;;9.7;100.0;100570;;;;
2022/04/22 03:42:00;;;;;;;16.3;14.7;;;;;;;9.7;100.0;100570;;;;
2022/04/22 03:43:00;;;;;;;16.3;14.7;;;;;;;9.7;100.0;100570;;;;
2022/04/22 03:44:00;;;;;;;16.3;14.7;;;;;;;9.7;100.0;100570;;;;
2022/04/22 03:45:00;;;;;;;16.3;14.7;;;;;;;9.7;100.0;100560;;;;
2022/04/22 03:46:00;;;;;;;16.3;14.7;;;;;;;9.7;100.0;100560;;;;
2022/04/22 03:47:03;;;;;;;16.3;14.7;;;;;;;9.5;100.0;100560;;;;
2022/04/22 03:48:00;;;;;;;16.3;14.7;;;;;;;9.5;100.0;100560;;;;
2022/04/22 03:49:00;;;;;;;16.3;14.7;;;;;;;9.5;100.0;100560;;;;
2022/04/22 03:50:00;;;;;;;16.3;14.7;;;;;;;9.5;100.0;100560;;;;
2022/04/22 03:51:00;;;;;;;16.3;14.7;;;;;;;9.5;100.0;100550;;;;
2022/04/22 03:52:00;;;;;;;16.3;14.7;;;;;;;9.5;100.0;100550;;;;
2022/04/22 03:53:00;;;;;;;16.3;14.7;;;;;;;9.6;100.0;100550;;;;
2022/04/22 03:54:00;;;;;;;16.3;14.7;;;;;;;9.6;100.0;100550;;;;
2022/04/22 03:55:00;;;;;;;15.9;14.2;;;;;;;9.5;100.0;100550;;;;
2022/04/22 03:58:10;;;;;;;15.9;14.2;;;;;;;9.5;100.0;100550;;;;
2022/04/22 03:59:01;;;;;;;15.9;14.2;;;;;;;9.6;100.0;100550;;;;
2022/04/22 04:00:00;;;;;;;15.9;14.2;;;;;;;9.6;100.0;100550;;;;
2022/04/22 04:01:00;;;;;;;15.9;14.2;;;;;;;9.6;100.0;100550;;;;
2022/04/22 04:02:00;;;;;;;15.9;14.2;;;;;;;9.6;100.0;100550;;;;
2022/04/22 04:03:01;;;;;;;15.9;14.2;;;;;;;9.6;100.0;100550;;;;
2022/04/22 04:04:01;;;;;;;15.9;14.2;;;;;;;9.6;100.0;100550;;;;
2022/04/22 04:05:00;;;;;;;15.9;14.2;;;;;;;9.6;100.0;100550;;;;
2022/04/22 04:06:00;;;;;;;15.9;14.2;;;;;;;9.6;100.0;100550;;;;
2022/04/22 04:07:00;;;;;;;15.9;14.2;;;;;;;9.5;100.0;100550;;;;
2022/04/22 04:08:00;;;;;;;15.9;14.2;;;;;;;9.5;100.0;100550;;;;
2022/04/22 04:16:01;;;;;;;16.7;15.0;;;;;;;9.4;100.0;100550;;;;
2022/04/22 04:17:00;;;;;;;16.7;15.0;;;;;;;9.5;100.0;100550;;;;
2022/04/22 04:18:00;;;;;;;16.7;15.0;;;;;;;9.5;100.0;100550;;;;
2022/04/22 04:24:00;;;;;;;16.7;15.0;;;;;;;9.4;100.0;100550;;;;
2022/04/22 04:25:00;;;;;;;16.7;15.0;;;;;;;9.4;100.0;100550;;;;
2022/04/22 04:26:00;;;;;;;16.7;15.0;;;;;;;9.4;100.0;100550;;;;
2022/04/22 04:27:00;;;;;;;16.7;15.0;;;;;;;9.4;100.0;100560;;;;
2022/04/22 04:28:00;;;;;;;16.7;15.0;;;;;;;9.4;100.0;100560;;;;
2022/04/22 04:29:00;;;;;;;16.7;15.0;;;;;;;9.5;100.0;100560;;;;
2022/04/22 04:30:00;;;;;;;16.7;15.0;;;;;;;9.5;100.0;100560;;;;
2022/04/22 04:31:00;;;;;;;16.7;15.0;;;;;;;9.3;100.0;100550;;;;
2022/04/22 04:32:00;;;;;;;16.7;15.0;;;;;;;9.3;100.0;100550;;;;
2022/04/22 04:33:00;;;;;;;16.7;15.0;;;;;;;9.4;100.0;100550;;;;
2022/04/22 04:34:00;;;;;;;16.7;15.0;;;;;;;9.4;100.0;100550;;;;
2022/04/22 04:35:00;;;;;;;16.7;15.0;;;;;;;9.4;100.0;100550;;;;
2022/04/22 04:36:00;;;;;;;16.7;15.0;;;;;;;9.4;100.0;100550;;;;
2022/04/22 04:37:00;;;;;;;16.7;15.0;;;;;;;9.5;100.0;100550;;;;
2022/04/22 04:38:00;;;;;;;16.7;15.0;;;;;;;9.5;100.0;100550;;;;
2022/04/22 04:39:00;;;;;;;16.7;15.0;;;;;;;9.5;100.0;100550;;;;
2022/04/22 04:40:00;;;;;;;16.7;15.0;;;;;;;9.5;100.0;100550;;;;
2022/04/22 04:41:00;;;;;;;16.7;15.0;;;;;;;9.6;100.0;100550;;;;
2022/04/22 04:42:00;;;;;;;16.7;15.0;;;;;;;9.6;100.0;100550;;;;
2022/04/22 04:43:01;;;;;;;16.7;15.0;;;;;;;9.6;100.0;100550;;;;
2022/04/22 04:44:00;;;;;;;16.7;15.0;;;;;;;9.6;100.0;100550;;;;
2022/04/22 04:45:00;;;;;;;16.7;15.0;;;;;;;9.4;100.0;100550;;;;
2022/04/22 04:46:00;;;;;;;16.7;15.0;;;;;;;9.4;100.0;100550;;;;
2022/04/22 04:47:00;;;;;;;16.7;15.0;;;;;;;9.5;100.0;100540;;;;
2022/04/22 04:48:01;;;;;;;16.7;15.0;;;;;;;9.5;100.0;100540;;;;
2022/04/22 04:49:01;;;;;;;16.7;15.0;;;;;;;9.4;100.0;100540;;;;
2022/04/22 04:50:00;;;;;;;16.7;15.0;;;;;;;9.4;100.0;100540;;;;
2022/04/22 04:51:00;;;;;;;16.7;15.0;;;;;;;9.5;100.0;100540;;;;
2022/04/22 04:52:00;;;;;;;16.7;15.0;;;;;;;9.5;100.0;100540;;;;
2022/04/22 04:53:00;;;;;;;16.7;15.0;;;;;;;9.4;100.0;100540;;;;
2022/04/22 04:54:00;;;;;;;16.7;15.0;;;;;;;9.4;100.0;100540;;;;
2022/04/22 04:55:00;;;;;;;18.3;16.6;;;;;;;9.4;100.0;100540;;;;
2022/04/22 04:56:00;;;;;;;18.3;16.6;;;;;;;9.4;100.0;100540;;;;
2022/04/22 04:57:00;;;;;;;18.3;16.6;;;;;;;9.4;100.0;100550;;;;
2022/04/22 04:58:00;;;;;;;18.3;16.6;;;;;;;9.4;100.0;100550;;;;
2022/04/22 04:59:00;;;;;;;18.3;16.6;;;;;;;9.6;100.0;100550;;;;
2022/04/22 05:00:00;;;;;;;18.3;16.6;;;;;;;9.6;100.0;100550;;;;
2022/04/22 05:01:00;;;;;;;18.3;16.6;;;;;;;9.5;100.0;100550;;;;
2022/04/22 05:02:00;;;;;;;18.3;16.6;;;;;;;9.5;100.0;100550;;;;
2022/04/22 05:03:02;;;;;;;18.3;16.6;;;;;;;9.5;100.0;100550;;;;
2022/04/22 05:04:00;;;;;;;18.3;16.6;;;;;;;9.5;100.0;100550;;;;
2022/04/22 05:05:00;;;;;;;18.3;16.6;;;;;;;9.6;100.0;100560;;;;
2022/04/22 05:06:01;;;;;;;18.3;16.6;;;;;;;9.6;100.0;100560;;;;
2022/04/22 05:07:00;;;;;;;18.3;16.6;;;;;;;9.6;100.0;100550;;;;
2022/04/22 05:08:00;;;;;;;18.3;16.6;;;;;;;9.6;100.0;100550;;;;
2022/04/22 05:09:00;;;;;;;18.3;16.6;;;;;;;9.5;100.0;100550;;;;
2022/04/22 05:10:05;;;;;;;18.3;16.6;;;;;;;9.5;100.0;100550;;;;
2022/04/22 05:11:00;;;;;;;18.3;16.6;;;;;;;9.6;100.0;100560;;;;
2022/04/22 05:12:00;;;;;;;18.3;16.6;;;;;;;9.6;100.0;100560;;;;
2022/04/22 05:13:00;;;;;;;18.3;16.6;;;;;;;9.6;100.0;100560;;;;
2022/04/22 05:14:00;;;;;;;18.3;16.6;;;;;;;9.6;100.0;100560;;;;
2022/04/22 05:15:00;;;;;;;19.6;17.8;;;;;;;9.6;100.0;100550;;;;
2022/04/22 05:16:00;;;;;;;19.6;17.8;;;;;;;9.6;100.0;100550;;;;
2022/04/22 05:17:00;;;;;;;19.6;17.8;;;;;;;9.6;100.0;100550;;;;
2022/04/22 05:18:02;;;;;;;19.6;17.8;;;;;;;9.6;100.0;100550;;;;
2022/04/22 05:19:01;;;;;;;19.6;17.8;;;;;;;9.6;100.0;100550;;;;
2022/04/22 05:20:00;;;;;;;19.6;17.8;;;;;;;9.6;100.0;100550;;;;
2022/04/22 05:21:00;;;;;;;19.6;17.8;;;;;;;9.7;100.0;100550;;;;
2022/04/22 05:22:00;;;;;;;19.6;17.8;;;;;;;9.7;100.0;100550;;;;
2022/04/22 05:23:00;;;;;;;19.6;17.8;;;;;;;9.7;100.0;100550;;;;
2022/04/22 05:24:00;;;;;;;19.6;17.8;;;;;;;9.7;100.0;100550;;;;
2022/04/22 05:25:00;;;;;;;19.6;17.8;;;;;;;9.8;100.0;100540;;;;
2022/04/22 05:26:02;;;;;;;19.6;17.8;;;;;;;9.8;100.0;100540;;;;
2022/04/22 05:27:00;;;;;;;19.6;17.8;;;;;;;9.9;100.0;100550;;;;
2022/04/22 05:28:00;;;;;;;19.6;17.8;;;;;;;9.9;100.0;100550;;;;
2022/04/22 05:29:00;;;;;;;19.6;17.8;;;;;;;9.9;100.0;100540;;;;
2022/04/22 05:33:00;;;;;;;19.6;17.8;;;;;;;9.8;100.0;100550;;;;
2022/04/22 05:34:00;;;;;;;19.6;17.8;;;;;;;9.8;100.0;100550;;;;
2022/04/22 05:35:00;;;;;;;22.8;19.6;;;;;;;9.7;100.0;100550;;;;
2022/04/22 05:36:00;;;;;;;22.8;19.6;;;;;;;9.7;100.0;100550;;;;
2022/04/22 05:37:00;;;;;;;22.8;19.6;;;;;;;9.9;100.0;100550;;;;
2022/04/22 05:38:01;;;;;;;22.8;19.6;;;;;;;9.9;100.0;100550;;;;
2022/04/22 05:39:00;;;;;;;22.8;19.6;;;;;;;9.9;100.0;100550;;;;
2022/04/22 05:40:00;;;;;;;22.8;19.6;;;;;;;9.9;100.0;100550;;;;
2022/04/22 05:41:00;;;;;;;22.8;19.6;;;;;;;9.9;100.0;100550;;;;
2022/04/22 05:42:01;;;;;;;22.8;19.6;;;;;;;9.9;100.0;100550;;;;
2022/04/22 05:43:00;;;;;;;22.8;19.6;;;;;;;9.9;100.0;100550;;;;
2022/04/22 05:44:00;;;;;;;22.8;19.6;;;;;;;9.9;100.0;100550;;;;
2022/04/22 05:45:00;;;;;;;22.8;19.6;;;;;;;9.9;100.0;100550;;;;
2022/04/22 05:46:00;;;;;;;22.8;19.6;;;;;;;9.9;100.0;100550;;;;
2022/04/22 05:47:00;;;;;;;22.8;19.6;;;;;;;10.0;100.0;100550;;;;
2022/04/22 05:48:00;;;;;;;22.8;19.6;;;;;;;10.0;100.0;100550;;;;
2022/04/22 05:49:00;;;;;;;22.8;19.6;;;;;;;9.9;100.0;100550;;;;
2022/04/22 05:50:00;;;;;;;22.8;19.6;;;;;;;9.9;100.0;100550;;;;
2022/04/22 05:51:00;;;;;;;22.8;19.6;;;;;;;10.0;100.0;100550;;;;
2022/04/22 05:52:00;;;;;;;22.8;19.6;;;;;;;10.0;100.0;100550;;;;
2022/04/22 05:53:00;;;;;;;22.8;19.6;;;;;;;10.0;100.0;100550;;;;
2022/04/22 05:54:00;;;;;;;22.8;19.6;;;;;;;10.0;100.0;100550;;;;
2022/04/22 05:55:02;;;;;;;22.5;20.2;;;;;;;10.0;100.0;100550;;;;
2022/04/22 05:56:00;;;;;;;22.5;20.2;;;;;;;10.0;100.0;100550;;;;
2022/04/22 05:57:00;;;;;;;22.5;20.2;;;;;;;10.2;100.0;100550;;;;
2022/04/22 05:58:00;;;;;;;22.5;20.2;;;;;;;10.2;100.0;100550;;;;
2022/04/22 05:59:00;;;;;;;22.5;20.2;;;;;;;10.2;100.0;100550;;;;
2022/04/22 06:00:00;;;;;;;22.5;20.2;;;;;;;10.2;100.0;100550;;;;
2022/04/22 06:01:00;;;;;;;22.5;20.2;;;;;;;10.3;100.0;100560;;;;
2022/04/22 06:02:00;;;;;;;22.5;20.2;;;;;;;10.3;100.0;100560;;;;
2022/04/22 06:03:00;;;;;;;22.5;20.2;;;;;;;10.3;100.0;100560;;;;
2022/04/22 06:04:00;;;;;;;22.5;20.2;;;;;;;10.3;100.0;100560;;;;
2022/04/22 06:05:00;;;;;;;22.5;20.2;;;;;;;10.3;100.0;100560;;;;
2022/04/22 06:06:00;;;;;;;22.5;20.2;;;;;;;10.3;100.0;100560;;;;
2022/04/22 06:07:00;;;;;;;22.5;20.2;;;;;;;10.4;100.0;100560;;;;
2022/04/22 06:11:00;;;;;;;22.5;20.2;;;;;;;10.3;100.0;100560;;;;
2022/04/22 06:12:00;;;;;;;22.5;20.2;;;;;;;10.3;100.0;100560;;;;
2022/04/22 06:13:00;;;;;;;22.5;20.2;;;;;;;10.6;100.0;100550;;;;
2022/04/22 06:14:00;;;;;;;22.5;20.2;;;;;;;10.6;100.0;100550;;;;
2022/04/22 06:15:01;;;;;;;22.3;20.2;;;;;;;10.4;100.0;100550;;;;
2022/04/22 06:16:00;;;;;;;22.3;20.2;;;;;;;10.4;100.0;100550;;;;
2022/04/22 06:17:00;;;;;;;22.3;20.2;;;;;;;10.4;100.0;100550;;;;
2022/04/22 06:18:01;;;;;;;22.3;20.2;;;;;;;10.4;100.0;100550;;;;
2022/04/22 06:19:00;;;;;;;22.3;20.2;;;;;;;10.5;100.0;100560;;;;
2022/04/22 06:20:00;;;;;;;22.3;20.2;;;;;;;10.5;100.0;100560;;;;
2022/04/22 06:21:00;;;;;;;22.3;20.2;;;;;;;10.5;100.0;100550;;;;
2022/04/22 06:22:00;;;;;;;22.3;20.2;;;;;;;10.5;100.0;100550;;;;
2022/04/22 06:23:00;;;;;;;22.3;20.2;;;;;;;10.7;100.0;100550;;;;
2022/04/22 06:24:00;;;;;;;22.3;20.2;;;;;;;10.7;100.0;100550;;;;
2022/04/22 06:26:00;;;;;;;22.3;20.2;;;;;;;10.7;100.0;100550;;;;
2022/04/22 06:27:00;;;;;;;22.3;20.2;;;;;;;10.7;100.0;100550;;;;
2022/04/22 06:28:00;;;;;;;22.3;20.2;;;;;;;10.7;100.0;100550;;;;
2022/04/22 06:30:04;;;;;;;22.3;20.2;;;;;;;10.6;100.0;100550;;;;
2022/04/22 06:31:00;;;;;;;22.3;20.2;;;;;;;10.7;100.0;100550;;;;
2022/04/22 06:32:02;;;;;;;22.3;20.2;;;;;;;10.7;100.0;100550;;;;
2022/04/22 06:33:03;;;;;;;22.3;20.2;;;;;;;10.9;100.0;100550;;;;
2022/04/22 06:34:00;;;;;;;22.3;20.2;;;;;;;10.9;100.0;100550;;;;
2022/04/22 06:35:00;;;;;;;21.7;19.5;;;;;;;10.8;100.0;100540;;;;
2022/04/22 06:36:00;;;;;;;21.7;19.5;;;;;;;10.8;100.0;100540;;;;
2022/04/22 06:37:00;;;;;;;21.7;19.5;;;;;;;10.7;100.0;100540;;;;
2022/04/22 06:38:01;;;;;;;21.7;19.5;;;;;;;10.7;100.0;100540;;;;
2022/04/22 06:39:01;;;;;;;21.7;19.5;;;;;;;10.8;100.0;100550;;;;
2022/04/22 06:46:00;;;;;;;21.7;19.5;;;;;;;10.9;100.0;100550;;;;
2022/04/22 06:47:00;;;;;;;21.7;19.5;;;;;;;11.0;100.0;100540;;;;
2022/04/22 06:48:00;;;;;;;21.7;19.5;;;;;;;11.0;100.0;100540;;;;
2022/04/22 06:49:00;;;;;;;21.7;19.5;;;;;;;11.1;100.0;100550;;;;
2022/04/22 06:50:00;;;;;;;21.7;19.5;;;;;;;11.1;100.0;100550;;;;
2022/04/22 06:51:00;;;;;;;21.7;19.5;;;;;;;11.0;100.0;100550;;;;
2022/04/22 06:52:01;;;;;;;21.7;19.5;;;;;;;11.0;100.0;100550;;;;
2022/04/22 06:53:00;;;;;;;21.7;19.5;;;;;;;11.0;100.0;100550;;;;
2022/04/22 06:54:00;;;;;;;21.7;18.7;;;;;;;11.0;100.0;100550;;;;
2022/04/22 06:55:00;;;;;;;20.6;18.7;;;;;;;11.3;100.0;100540;;;;
2022/04/22 06:56:01;;;;;;;20.6;18.7;;;;;;;11.3;100.0;100540;;;;
2022/04/22 06:57:03;;;;;;;20.6;18.7;;;;;;;11.4;100.0;100540;;;;